<?xml version="1.0" encoding="UTF-8"?>
<gpx version="1.1" creator="2bulu-scraper" xmlns="http://www.topografix.com/GPX/1/1">
  <metadata><name>:36古叙蛟龙线</name><desc>source: 2bulu.com trackId=87545564; exported 2026-09-01T14:54:48.344Z</desc>
    <bounds minlat="28.221767" minlon="105.621493" maxlat="28.281101" maxlon="105.678024"/>
    <link href="https://www.2bulu.com/track/t-CEKMNlipez3p%252FR2KBg5Tzw%253D%253D.htm"><text>2bulu 源页面</text></link>
  </metadata>
  <wpt lat="28.280258" lon="105.626376"><ele>495</ele><name>起点</name></wpt>
  <wpt lat="28.28012" lon="105.626436"><ele>497</ele><name></name></wpt>
  <wpt lat="28.277387" lon="105.627583"><ele>525</ele><name>开始进山</name></wpt>
  <wpt lat="28.27781" lon="105.627198"><ele>551</ele><name></name></wpt>
  <wpt lat="28.27779" lon="105.627266"><ele>553</ele><name></name></wpt>
  <wpt lat="28.277649" lon="105.627612"><ele>562</ele><name>竹林段</name></wpt>
  <wpt lat="28.277627" lon="105.62766"><ele>566</ele><name></name></wpt>
  <wpt lat="28.276678" lon="105.627137"><ele>561</ele><name></name></wpt>
  <wpt lat="28.27562" lon="105.626907"><ele>635</ele><name></name></wpt>
  <wpt lat="28.275088" lon="105.627262"><ele>647</ele><name></name></wpt>
  <wpt lat="28.275131" lon="105.627364"><ele>652</ele><name></name></wpt>
  <wpt lat="28.270957" lon="105.629339"><ele>844</ele><name>山地公路</name></wpt>
  <wpt lat="28.270103" lon="105.631639"><ele>833</ele><name></name></wpt>
  <wpt lat="28.270048" lon="105.631766"><ele>834</ele><name></name></wpt>
  <wpt lat="28.26987" lon="105.631984"><ele>848</ele><name></name></wpt>
  <wpt lat="28.268295" lon="105.636281"><ele>918</ele><name></name></wpt>
  <wpt lat="28.262469" lon="105.641719"><ele>1044</ele><name>老者</name></wpt>
  <wpt lat="28.262466" lon="105.641719"><ele>1045</ele><name>90岁还种地的老年人</name></wpt>
  <wpt lat="28.260638" lon="105.642143"><ele>1087</ele><name></name></wpt>
  <wpt lat="28.253684" lon="105.656965"><ele>1149</ele><name></name></wpt>
  <wpt lat="28.253736" lon="105.657049"><ele>1148</ele><name></name></wpt>
  <wpt lat="28.253825" lon="105.657233"><ele>1142</ele><name></name></wpt>
  <wpt lat="28.25391" lon="105.657343"><ele>1145</ele><name></name></wpt>
  <wpt lat="28.254029" lon="105.657377"><ele>1157</ele><name></name></wpt>
  <wpt lat="28.247952" lon="105.66868"><ele>1308</ele><name></name></wpt>
  <wpt lat="28.247869" lon="105.66873"><ele>1306</ele><name></name></wpt>
  <wpt lat="28.247573" lon="105.668894"><ele>1290</ele><name></name></wpt>
  <wpt lat="28.247227" lon="105.669724"><ele>1282</ele><name></name></wpt>
  <wpt lat="28.247204" lon="105.669796"><ele>1282</ele><name>古典石头路</name></wpt>
  <wpt lat="28.246629" lon="105.670306"><ele>1302</ele><name></name></wpt>
  <wpt lat="28.243491" lon="105.671406"><ele>1335</ele><name></name></wpt>
  <wpt lat="28.243472" lon="105.671426"><ele>1335</ele><name></name></wpt>
  <wpt lat="28.240826" lon="105.674611"><ele>1354</ele><name></name></wpt>
  <wpt lat="28.238733" lon="105.676594"><ele>1375</ele><name>山脊路</name></wpt>
  <wpt lat="28.238509" lon="105.676592"><ele>1373</ele><name></name></wpt>
  <wpt lat="28.235906" lon="105.677703"><ele>1363</ele><name></name></wpt>
  <wpt lat="28.235374" lon="105.677667"><ele>1360</ele><name></name></wpt>
  <wpt lat="28.234549" lon="105.677877"><ele>1328</ele><name></name></wpt>
  <wpt lat="28.226254" lon="105.673162"><ele>1136</ele><name></name></wpt>
  <wpt lat="28.226231" lon="105.673202"><ele>1136</ele><name></name></wpt>
  <wpt lat="28.22615" lon="105.673265"><ele>1127</ele><name></name></wpt>
  <wpt lat="28.224593" lon="105.674061"><ele>975</ele><name>兰竹林</name></wpt>
  <wpt lat="28.222926" lon="105.674066"><ele>866</ele><name></name></wpt>
  <wpt lat="28.222925" lon="105.674055"><ele>868</ele><name></name></wpt>
  <wpt lat="28.230207" lon="105.662242"><ele>690</ele><name>河谷段</name></wpt>
  <wpt lat="28.240291" lon="105.654167"><ele>661</ele><name>茶马古道</name></wpt>
  <wpt lat="28.240614" lon="105.653748"><ele>667</ele><name></name></wpt>
  <wpt lat="28.242379" lon="105.644946"><ele>643</ele><name>河谷公路</name></wpt>
  <wpt lat="28.24217" lon="105.644764"><ele>642</ele><name></name></wpt>
  <wpt lat="28.246367" lon="105.643064"><ele>631</ele><name>瀑布</name></wpt>
  <wpt lat="28.2465" lon="105.643095"><ele>631</ele><name></name></wpt>
  <wpt lat="28.265443" lon="105.631606"><ele>567</ele><name>耍水</name></wpt>
  <wpt lat="28.265504" lon="105.631824"><ele>565</ele><name></name></wpt>
  <wpt lat="28.263436" lon="105.629822"><ele>569</ele><name></name></wpt>
  <wpt lat="28.270315" lon="105.624472"><ele>552</ele><name></name></wpt>
  <wpt lat="28.270505" lon="105.624487"><ele>552</ele><name>河谷公路</name></wpt>
  <wpt lat="28.280533" lon="105.626225"><ele>498</ele><name>起终点</name></wpt>
  <trk><name>:36古叙蛟龙线</name>
      <trkseg>
        <trkpt lat="28.280501" lon="105.6263"><ele>493.49518</ele><time>2026-07-24T16:14:37.000Z</time></trkpt>
        <trkpt lat="28.27986" lon="105.626505"><ele>498.32803</ele><time>2026-07-24T16:15:47.000Z</time></trkpt>
        <trkpt lat="28.278933" lon="105.626467"><ele>512.126</ele><time>2026-07-24T16:17:19.000Z</time></trkpt>
        <trkpt lat="28.277589" lon="105.626679"><ele>512.1394</ele><time>2026-07-24T16:19:38.000Z</time></trkpt>
        <trkpt lat="28.277341" lon="105.627642"><ele>529.86414</ele><time>2026-07-24T16:22:04.000Z</time></trkpt>
        <trkpt lat="28.277408" lon="105.627246"><ele>519.4117</ele><time>2026-07-24T16:23:06.000Z</time></trkpt>
        <trkpt lat="28.277746" lon="105.627071"><ele>533.7473</ele><time>2026-07-24T16:25:37.000Z</time></trkpt>
        <trkpt lat="28.277799" lon="105.62737"><ele>556.9153</ele><time>2026-07-24T16:27:45.000Z</time></trkpt>
        <trkpt lat="28.277627" lon="105.627669"><ele>566.5577</ele><time>2026-07-24T16:29:00.000Z</time></trkpt>
        <trkpt lat="28.277855" lon="105.627763"><ele>579.7014</ele><time>2026-07-24T16:30:33.000Z</time></trkpt>
        <trkpt lat="28.278003" lon="105.627582"><ele>579.0055</ele><time>2026-07-24T16:30:57.000Z</time></trkpt>
        <trkpt lat="28.277569" lon="105.628335"><ele>590.3068</ele><time>2026-07-24T16:32:33.000Z</time></trkpt>
        <trkpt lat="28.277704" lon="105.628568"><ele>601.1668</ele><time>2026-07-24T16:33:21.000Z</time></trkpt>
        <trkpt lat="28.277461" lon="105.628853"><ele>600.4484</ele><time>2026-07-24T16:33:51.000Z</time></trkpt>
        <trkpt lat="28.277595" lon="105.629227"><ele>602.2045</ele><time>2026-07-24T16:35:19.000Z</time></trkpt>
        <trkpt lat="28.277281" lon="105.629229"><ele>594.1124</ele><time>2026-07-24T16:36:11.000Z</time></trkpt>
        <trkpt lat="28.277116" lon="105.628797"><ele>583.8162</ele><time>2026-07-24T16:38:08.000Z</time></trkpt>
        <trkpt lat="28.276992" lon="105.62885"><ele>570.3514</ele><time>2026-07-24T16:39:55.000Z</time></trkpt>
        <trkpt lat="28.277137" lon="105.628324"><ele>562.1778</ele><time>2026-07-24T16:43:32.000Z</time></trkpt>
        <trkpt lat="28.276782" lon="105.628717"><ele>561.28925</ele><time>2026-07-24T16:44:44.000Z</time></trkpt>
        <trkpt lat="28.276736" lon="105.628403"><ele>531.92975</ele><time>2026-07-24T16:45:38.000Z</time></trkpt>
        <trkpt lat="28.276478" lon="105.62834"><ele>520.4605</ele><time>2026-07-24T16:46:27.000Z</time></trkpt>
        <trkpt lat="28.276646" lon="105.627967"><ele>538.00665</ele><time>2026-07-24T16:47:49.000Z</time></trkpt>
        <trkpt lat="28.276667" lon="105.626877"><ele>564.3281</ele><time>2026-07-24T16:51:01.000Z</time></trkpt>
        <trkpt lat="28.276549" lon="105.626577"><ele>581.35077</ele><time>2026-07-24T16:52:15.000Z</time></trkpt>
        <trkpt lat="28.276313" lon="105.626453"><ele>594.543</ele><time>2026-07-24T16:53:14.000Z</time></trkpt>
        <trkpt lat="28.276211" lon="105.626856"><ele>606.8619</ele><time>2026-07-24T16:54:08.000Z</time></trkpt>
        <trkpt lat="28.27604" lon="105.62668"><ele>613.63007</ele><time>2026-07-24T16:54:42.000Z</time></trkpt>
        <trkpt lat="28.275334" lon="105.627196"><ele>640.96185</ele><time>2026-07-24T16:59:03.000Z</time></trkpt>
        <trkpt lat="28.275114" lon="105.627172"><ele>646.4809</ele><time>2026-07-24T16:59:29.000Z</time></trkpt>
        <trkpt lat="28.275226" lon="105.627492"><ele>654.8625</ele><time>2026-07-24T17:01:29.000Z</time></trkpt>
        <trkpt lat="28.274871" lon="105.62798"><ele>678.58606</ele><time>2026-07-24T17:03:30.000Z</time></trkpt>
        <trkpt lat="28.274779" lon="105.629266"><ele>720.2693</ele><time>2026-07-24T17:07:28.000Z</time></trkpt>
        <trkpt lat="28.274433" lon="105.629823"><ele>738.2153</ele><time>2026-07-24T17:08:28.000Z</time></trkpt>
        <trkpt lat="28.273984" lon="105.629952"><ele>751.7148</ele><time>2026-07-24T17:10:07.000Z</time></trkpt>
        <trkpt lat="28.273069" lon="105.629813"><ele>775.8746</ele><time>2026-07-24T17:12:55.000Z</time></trkpt>
        <trkpt lat="28.27281" lon="105.629965"><ele>781.15186</ele><time>2026-07-24T17:13:33.000Z</time></trkpt>
        <trkpt lat="28.272149" lon="105.629759"><ele>798.33685</ele><time>2026-07-24T17:20:25.000Z</time></trkpt>
        <trkpt lat="28.271281" lon="105.62992"><ele>813.86707</ele><time>2026-07-24T17:22:17.000Z</time></trkpt>
        <trkpt lat="28.271141" lon="105.62974"><ele>822.63885</ele><time>2026-07-24T17:23:01.000Z</time></trkpt>
        <trkpt lat="28.271454" lon="105.629626"><ele>823.22565</ele><time>2026-07-24T17:23:39.000Z</time></trkpt>
        <trkpt lat="28.271639" lon="105.629263"><ele>827.5018</ele><time>2026-07-24T17:24:17.000Z</time></trkpt>
        <trkpt lat="28.272101" lon="105.629135"><ele>830.6255</ele><time>2026-07-24T17:25:17.000Z</time></trkpt>
        <trkpt lat="28.272169" lon="105.628861"><ele>834.36786</ele><time>2026-07-24T17:26:09.000Z</time></trkpt>
        <trkpt lat="28.271186" lon="105.62916"><ele>845.8268</ele><time>2026-07-24T17:28:07.000Z</time></trkpt>
        <trkpt lat="28.270669" lon="105.6295"><ele>845.5104</ele><time>2026-07-24T17:29:01.000Z</time></trkpt>
        <trkpt lat="28.270557" lon="105.629837"><ele>844.2433</ele><time>2026-07-24T17:29:32.000Z</time></trkpt>
        <trkpt lat="28.270278" lon="105.629992"><ele>842.1708</ele><time>2026-07-24T17:29:59.000Z</time></trkpt>
        <trkpt lat="28.270438" lon="105.630545"><ele>836.57227</ele><time>2026-07-24T17:30:49.000Z</time></trkpt>
        <trkpt lat="28.270086" lon="105.631701"><ele>833.68744</ele><time>2026-07-24T17:32:47.000Z</time></trkpt>
        <trkpt lat="28.269477" lon="105.632254"><ele>846.7691</ele><time>2026-07-24T17:34:27.000Z</time></trkpt>
        <trkpt lat="28.269338" lon="105.633536"><ele>865.0243</ele><time>2026-07-24T17:36:23.000Z</time></trkpt>
        <trkpt lat="28.269103" lon="105.634113"><ele>870.6259</ele><time>2026-07-24T17:37:19.000Z</time></trkpt>
        <trkpt lat="28.268669" lon="105.634216"><ele>874.76514</ele><time>2026-07-24T17:37:54.000Z</time></trkpt>
        <trkpt lat="28.268186" lon="105.634712"><ele>879.61414</ele><time>2026-07-24T17:38:51.000Z</time></trkpt>
        <trkpt lat="28.267829" lon="105.634813"><ele>885.5818</ele><time>2026-07-24T17:39:31.000Z</time></trkpt>
        <trkpt lat="28.268231" lon="105.635779"><ele>909.7453</ele><time>2026-07-24T17:41:47.000Z</time></trkpt>
        <trkpt lat="28.268421" lon="105.63674"><ele>924.9899</ele><time>2026-07-24T17:44:05.000Z</time></trkpt>
        <trkpt lat="28.267729" lon="105.636677"><ele>937.89685</ele><time>2026-07-24T17:45:13.000Z</time></trkpt>
        <trkpt lat="28.267305" lon="105.637104"><ele>940.2832</ele><time>2026-07-24T17:46:07.000Z</time></trkpt>
        <trkpt lat="28.266359" lon="105.63907"><ele>976.1528</ele><time>2026-07-24T17:49:45.000Z</time></trkpt>
        <trkpt lat="28.266008" lon="105.639341"><ele>985.00354</ele><time>2026-07-24T17:50:31.000Z</time></trkpt>
        <trkpt lat="28.26591" lon="105.639849"><ele>990.1886</ele><time>2026-07-24T17:51:19.000Z</time></trkpt>
        <trkpt lat="28.265119" lon="105.639454"><ele>1008.6378</ele><time>2026-07-24T17:52:47.000Z</time></trkpt>
        <trkpt lat="28.264873" lon="105.639803"><ele>1011.38574</ele><time>2026-07-24T17:53:31.000Z</time></trkpt>
        <trkpt lat="28.26383" lon="105.640378"><ele>1018.72144</ele><time>2026-07-24T17:55:21.000Z</time></trkpt>
        <trkpt lat="28.262593" lon="105.640537"><ele>1030.6083</ele><time>2026-07-24T17:58:08.000Z</time></trkpt>
        <trkpt lat="28.262452" lon="105.640874"><ele>1037.9446</ele><time>2026-07-24T17:58:44.000Z</time></trkpt>
        <trkpt lat="28.262457" lon="105.641732"><ele>1044.4487</ele><time>2026-07-24T18:01:35.000Z</time></trkpt>
        <trkpt lat="28.261885" lon="105.640663"><ele>1062.206</ele><time>2026-07-24T18:12:02.000Z</time></trkpt>
        <trkpt lat="28.261872" lon="105.641075"><ele>1070.1753</ele><time>2026-07-24T18:12:46.000Z</time></trkpt>
        <trkpt lat="28.261338" lon="105.641152"><ele>1080.156</ele><time>2026-07-24T18:13:44.000Z</time></trkpt>
        <trkpt lat="28.260916" lon="105.641609"><ele>1089.207</ele><time>2026-07-24T18:14:40.000Z</time></trkpt>
        <trkpt lat="28.260316" lon="105.643194"><ele>1090.5862</ele><time>2026-07-24T18:16:42.000Z</time></trkpt>
        <trkpt lat="28.259877" lon="105.643924"><ele>1095.0724</ele><time>2026-07-24T18:17:53.000Z</time></trkpt>
        <trkpt lat="28.258607" lon="105.644978"><ele>1098.764</ele><time>2026-07-24T18:19:57.000Z</time></trkpt>
        <trkpt lat="28.258285" lon="105.645543"><ele>1100.7738</ele><time>2026-07-24T18:20:42.000Z</time></trkpt>
        <trkpt lat="28.257811" lon="105.645954"><ele>1104.8788</ele><time>2026-07-24T18:21:28.000Z</time></trkpt>
        <trkpt lat="28.25716" lon="105.647245"><ele>1109.6677</ele><time>2026-07-24T18:23:04.000Z</time></trkpt>
        <trkpt lat="28.256734" lon="105.64751"><ele>1108.8949</ele><time>2026-07-24T18:23:40.000Z</time></trkpt>
        <trkpt lat="28.256494" lon="105.648297"><ele>1108.1538</ele><time>2026-07-24T18:24:38.000Z</time></trkpt>
        <trkpt lat="28.256043" lon="105.648593"><ele>1113.6757</ele><time>2026-07-24T18:25:24.000Z</time></trkpt>
        <trkpt lat="28.25618" lon="105.649585"><ele>1121.8541</ele><time>2026-07-24T18:28:15.000Z</time></trkpt>
        <trkpt lat="28.255675" lon="105.650471"><ele>1134.1904</ele><time>2026-07-24T18:30:05.000Z</time></trkpt>
        <trkpt lat="28.255017" lon="105.651067"><ele>1131.9921</ele><time>2026-07-24T18:31:21.000Z</time></trkpt>
        <trkpt lat="28.254864" lon="105.651637"><ele>1137.582</ele><time>2026-07-24T18:32:13.000Z</time></trkpt>
        <trkpt lat="28.254467" lon="105.651862"><ele>1138.7566</ele><time>2026-07-24T18:32:53.000Z</time></trkpt>
        <trkpt lat="28.254648" lon="105.652504"><ele>1141.2994</ele><time>2026-07-24T18:33:49.000Z</time></trkpt>
        <trkpt lat="28.254151" lon="105.652782"><ele>1141.2804</ele><time>2026-07-24T18:34:35.000Z</time></trkpt>
        <trkpt lat="28.254171" lon="105.653081"><ele>1142.3517</ele><time>2026-07-24T18:35:03.000Z</time></trkpt>
        <trkpt lat="28.253921" lon="105.653508"><ele>1145.2139</ele><time>2026-07-24T18:35:57.000Z</time></trkpt>
        <trkpt lat="28.254191" lon="105.653725"><ele>1147.1301</ele><time>2026-07-24T18:36:37.000Z</time></trkpt>
        <trkpt lat="28.25411" lon="105.654327"><ele>1152.4816</ele><time>2026-07-24T18:37:31.000Z</time></trkpt>
        <trkpt lat="28.253717" lon="105.654644"><ele>1150.7836</ele><time>2026-07-24T18:38:15.000Z</time></trkpt>
        <trkpt lat="28.253546" lon="105.655254"><ele>1155.7128</ele><time>2026-07-24T18:39:15.000Z</time></trkpt>
        <trkpt lat="28.253153" lon="105.655553"><ele>1154.5297</ele><time>2026-07-24T18:40:11.000Z</time></trkpt>
        <trkpt lat="28.253481" lon="105.655892"><ele>1152.0322</ele><time>2026-07-24T18:41:11.000Z</time></trkpt>
        <trkpt lat="28.253371" lon="105.656483"><ele>1153.114</ele><time>2026-07-24T18:42:01.000Z</time></trkpt>
        <trkpt lat="28.25357" lon="105.656577"><ele>1151.2634</ele><time>2026-07-24T18:42:25.000Z</time></trkpt>
        <trkpt lat="28.253872" lon="105.657432"><ele>1143.6127</ele><time>2026-07-24T18:44:13.000Z</time></trkpt>
        <trkpt lat="28.254237" lon="105.656927"><ele>1176.1775</ele><time>2026-07-24T18:51:17.000Z</time></trkpt>
        <trkpt lat="28.254368" lon="105.657032"><ele>1184.9479</ele><time>2026-07-24T18:52:13.000Z</time></trkpt>
        <trkpt lat="28.254543" lon="105.656877"><ele>1191.0393</ele><time>2026-07-24T18:53:11.000Z</time></trkpt>
        <trkpt lat="28.255011" lon="105.657592"><ele>1204.3336</ele><time>2026-07-24T18:55:47.000Z</time></trkpt>
        <trkpt lat="28.254759" lon="105.657898"><ele>1225.0234</ele><time>2026-07-24T19:00:18.000Z</time></trkpt>
        <trkpt lat="28.254924" lon="105.658652"><ele>1231.4955</ele><time>2026-07-24T19:02:32.000Z</time></trkpt>
        <trkpt lat="28.25489" lon="105.659447"><ele>1235.9514</ele><time>2026-07-24T19:04:24.000Z</time></trkpt>
        <trkpt lat="28.255524" lon="105.662197"><ele>1265.6222</ele><time>2026-07-24T19:14:22.000Z</time></trkpt>
        <trkpt lat="28.255197" lon="105.663707"><ele>1281.7184</ele><time>2026-07-24T19:19:14.000Z</time></trkpt>
        <trkpt lat="28.254606" lon="105.663725"><ele>1275.5656</ele><time>2026-07-24T19:20:22.000Z</time></trkpt>
        <trkpt lat="28.25444" lon="105.664374"><ele>1280.0167</ele><time>2026-07-24T19:21:48.000Z</time></trkpt>
        <trkpt lat="28.253581" lon="105.664919"><ele>1286.6937</ele><time>2026-07-24T19:23:50.000Z</time></trkpt>
        <trkpt lat="28.252751" lon="105.665882"><ele>1292.9329</ele><time>2026-07-24T19:25:50.000Z</time></trkpt>
        <trkpt lat="28.252265" lon="105.666095"><ele>1298.1486</ele><time>2026-07-24T19:26:44.000Z</time></trkpt>
        <trkpt lat="28.251516" lon="105.667219"><ele>1304.4155</ele><time>2026-07-24T19:28:46.000Z</time></trkpt>
        <trkpt lat="28.251097" lon="105.667381"><ele>1305.8597</ele><time>2026-07-24T19:29:26.000Z</time></trkpt>
        <trkpt lat="28.250481" lon="105.667979"><ele>1315.5243</ele><time>2026-07-24T19:30:44.000Z</time></trkpt>
        <trkpt lat="28.248638" lon="105.668176"><ele>1316.0085</ele><time>2026-07-24T19:33:36.000Z</time></trkpt>
        <trkpt lat="28.248382" lon="105.668477"><ele>1309.0579</ele><time>2026-07-24T19:34:12.000Z</time></trkpt>
        <trkpt lat="28.247612" lon="105.668781"><ele>1294.549</ele><time>2026-07-24T19:35:57.000Z</time></trkpt>
        <trkpt lat="28.247662" lon="105.669252"><ele>1278.5833</ele><time>2026-07-24T19:37:12.000Z</time></trkpt>
        <trkpt lat="28.247481" lon="105.669181"><ele>1270.0876</ele><time>2026-07-24T19:37:39.000Z</time></trkpt>
        <trkpt lat="28.247267" lon="105.669393"><ele>1267.0057</ele><time>2026-07-24T19:38:09.000Z</time></trkpt>
        <trkpt lat="28.247349" lon="105.669696"><ele>1275.2664</ele><time>2026-07-24T19:39:04.000Z</time></trkpt>
        <trkpt lat="28.247039" lon="105.670215"><ele>1292.6519</ele><time>2026-07-24T19:41:24.000Z</time></trkpt>
        <trkpt lat="28.245494" lon="105.670754"><ele>1306.6754</ele><time>2026-07-24T19:48:09.000Z</time></trkpt>
        <trkpt lat="28.244592" lon="105.670815"><ele>1323.6625</ele><time>2026-07-24T19:49:57.000Z</time></trkpt>
        <trkpt lat="28.242919" lon="105.671776"><ele>1335.7024</ele><time>2026-07-24T19:53:11.000Z</time></trkpt>
        <trkpt lat="28.242582" lon="105.672498"><ele>1339.4106</ele><time>2026-07-24T19:54:17.000Z</time></trkpt>
        <trkpt lat="28.241942" lon="105.673006"><ele>1349.9808</ele><time>2026-07-24T19:55:31.000Z</time></trkpt>
        <trkpt lat="28.24083" lon="105.674585"><ele>1351.6587</ele><time>2026-07-24T19:58:15.000Z</time></trkpt>
        <trkpt lat="28.240672" lon="105.675504"><ele>1343.6307</ele><time>2026-07-24T19:59:23.000Z</time></trkpt>
        <trkpt lat="28.240801" lon="105.675968"><ele>1341.4935</ele><time>2026-07-24T19:59:59.000Z</time></trkpt>
        <trkpt lat="28.241154" lon="105.676421"><ele>1343.156</ele><time>2026-07-24T20:01:03.000Z</time></trkpt>
        <trkpt lat="28.240695" lon="105.67555"><ele>1345.9684</ele><time>2026-07-24T20:02:57.000Z</time></trkpt>
        <trkpt lat="28.240799" lon="105.674612"><ele>1353.9774</ele><time>2026-07-24T20:04:33.000Z</time></trkpt>
        <trkpt lat="28.240689" lon="105.67554"><ele>1345.9441</ele><time>2026-07-24T20:13:11.000Z</time></trkpt>
        <trkpt lat="28.241221" lon="105.676504"><ele>1343.7533</ele><time>2026-07-24T20:15:43.000Z</time></trkpt>
        <trkpt lat="28.240885" lon="105.676606"><ele>1365.2844</ele><time>2026-07-24T20:18:49.000Z</time></trkpt>
        <trkpt lat="28.240412" lon="105.676368"><ele>1372.4463</ele><time>2026-07-24T20:21:41.000Z</time></trkpt>
        <trkpt lat="28.238568" lon="105.676549"><ele>1370.6056</ele><time>2026-07-24T20:25:37.000Z</time></trkpt>
        <trkpt lat="28.237283" lon="105.677679"><ele>1357.3638</ele><time>2026-07-24T20:28:31.000Z</time></trkpt>
        <trkpt lat="28.236709" lon="105.677564"><ele>1360.7896</ele><time>2026-07-24T20:29:37.000Z</time></trkpt>
        <trkpt lat="28.235347" lon="105.677665"><ele>1360.7916</ele><time>2026-07-24T20:32:33.000Z</time></trkpt>
        <trkpt lat="28.234778" lon="105.677937"><ele>1343.1346</ele><time>2026-07-24T20:34:28.000Z</time></trkpt>
        <trkpt lat="28.233301" lon="105.678024"><ele>1289.0355</ele><time>2026-07-24T20:38:58.000Z</time></trkpt>
        <trkpt lat="28.231842" lon="105.6775"><ele>1285.304</ele><time>2026-07-24T20:41:48.000Z</time></trkpt>
        <trkpt lat="28.230491" lon="105.676498"><ele>1242.3573</ele><time>2026-07-24T20:44:56.000Z</time></trkpt>
        <trkpt lat="28.22938" lon="105.676145"><ele>1219.5886</ele><time>2026-07-24T20:47:04.000Z</time></trkpt>
        <trkpt lat="28.228037" lon="105.675462"><ele>1201.2455</ele><time>2026-07-24T20:50:04.000Z</time></trkpt>
        <trkpt lat="28.226747" lon="105.674"><ele>1161.9202</ele><time>2026-07-24T20:56:47.000Z</time></trkpt>
        <trkpt lat="28.226609" lon="105.673347"><ele>1144.3845</ele><time>2026-07-24T20:58:05.000Z</time></trkpt>
        <trkpt lat="28.226273" lon="105.673149"><ele>1136.5754</ele><time>2026-07-24T20:59:40.000Z</time></trkpt>
        <trkpt lat="28.225978" lon="105.673244"><ele>1119.5662</ele><time>2026-07-24T21:01:58.000Z</time></trkpt>
        <trkpt lat="28.225512" lon="105.67278"><ele>1069.2123</ele><time>2026-07-24T21:06:12.000Z</time></trkpt>
        <trkpt lat="28.225425" lon="105.673228"><ele>1046.8588</ele><time>2026-07-24T21:08:44.000Z</time></trkpt>
        <trkpt lat="28.225094" lon="105.673476"><ele>1025.1691</ele><time>2026-07-24T21:10:45.000Z</time></trkpt>
        <trkpt lat="28.225286" lon="105.674309"><ele>999.8474</ele><time>2026-07-24T21:39:00.000Z</time></trkpt>
        <trkpt lat="28.225094" lon="105.674093"><ele>992.15045</ele><time>2026-07-24T21:39:38.000Z</time></trkpt>
        <trkpt lat="28.224097" lon="105.674142"><ele>954.9673</ele><time>2026-07-24T21:42:40.000Z</time></trkpt>
        <trkpt lat="28.223631" lon="105.673986"><ele>929.8245</ele><time>2026-07-24T21:44:10.000Z</time></trkpt>
        <trkpt lat="28.223271" lon="105.673985"><ele>912.1941</ele><time>2026-07-24T21:45:12.000Z</time></trkpt>
        <trkpt lat="28.223374" lon="105.674229"><ele>902.4859</ele><time>2026-07-24T21:46:00.000Z</time></trkpt>
        <trkpt lat="28.223249" lon="105.674344"><ele>894.4734</ele><time>2026-07-24T21:46:40.000Z</time></trkpt>
        <trkpt lat="28.222982" lon="105.674253"><ele>876.2964</ele><time>2026-07-24T21:47:40.000Z</time></trkpt>
        <trkpt lat="28.222712" lon="105.6728"><ele>807.2156</ele><time>2026-07-24T21:52:10.000Z</time></trkpt>
        <trkpt lat="28.22263" lon="105.672689"><ele>799.3146</ele><time>2026-07-24T21:52:32.000Z</time></trkpt>
        <trkpt lat="28.222251" lon="105.672748"><ele>766.5331</ele><time>2026-07-24T21:54:08.000Z</time></trkpt>
        <trkpt lat="28.222293" lon="105.672374"><ele>762.3864</ele><time>2026-07-24T21:54:56.000Z</time></trkpt>
        <trkpt lat="28.221767" lon="105.671977"><ele>775.2972</ele><time>2026-07-24T21:56:27.000Z</time></trkpt>
        <trkpt lat="28.221902" lon="105.671861"><ele>773.38324</ele><time>2026-07-24T21:56:41.000Z</time></trkpt>
        <trkpt lat="28.221778" lon="105.671678"><ele>773.1192</ele><time>2026-07-24T21:57:07.000Z</time></trkpt>
        <trkpt lat="28.222006" lon="105.671509"><ele>757.6438</ele><time>2026-07-24T21:57:27.000Z</time></trkpt>
        <trkpt lat="28.222479" lon="105.67053"><ele>721.638</ele><time>2026-07-24T21:58:47.000Z</time></trkpt>
        <trkpt lat="28.223947" lon="105.669719"><ele>727.1845</ele><time>2026-07-24T22:01:05.000Z</time></trkpt>
        <trkpt lat="28.224237" lon="105.669297"><ele>728.6024</ele><time>2026-07-24T22:01:47.000Z</time></trkpt>
        <trkpt lat="28.224025" lon="105.668872"><ele>728.0307</ele><time>2026-07-24T22:02:33.000Z</time></trkpt>
        <trkpt lat="28.224163" lon="105.668694"><ele>726.19714</ele><time>2026-07-24T22:02:53.000Z</time></trkpt>
        <trkpt lat="28.22477" lon="105.668403"><ele>733.1449</ele><time>2026-07-24T22:03:51.000Z</time></trkpt>
        <trkpt lat="28.225412" lon="105.668564"><ele>744.534</ele><time>2026-07-24T22:04:45.000Z</time></trkpt>
        <trkpt lat="28.227104" lon="105.668543"><ele>746.7731</ele><time>2026-07-24T22:06:53.000Z</time></trkpt>
        <trkpt lat="28.228444" lon="105.668737"><ele>763.05237</ele><time>2026-07-24T22:08:41.000Z</time></trkpt>
        <trkpt lat="28.229443" lon="105.668439"><ele>719.9946</ele><time>2026-07-24T22:09:55.000Z</time></trkpt>
        <trkpt lat="28.229749" lon="105.668146"><ele>712.58923</ele><time>2026-07-24T22:10:27.000Z</time></trkpt>
        <trkpt lat="28.229891" lon="105.667558"><ele>708.81714</ele><time>2026-07-24T22:11:05.000Z</time></trkpt>
        <trkpt lat="28.22972" lon="105.66686"><ele>704.2832</ele><time>2026-07-24T22:11:53.000Z</time></trkpt>
        <trkpt lat="28.228726" lon="105.665807"><ele>720.6125</ele><time>2026-07-24T22:13:35.000Z</time></trkpt>
        <trkpt lat="28.228114" lon="105.664835"><ele>720.048</ele><time>2026-07-24T22:14:59.000Z</time></trkpt>
        <trkpt lat="28.228211" lon="105.664043"><ele>701.7818</ele><time>2026-07-24T22:16:03.000Z</time></trkpt>
        <trkpt lat="28.228409" lon="105.663535"><ele>705.72034</ele><time>2026-07-24T22:17:13.000Z</time></trkpt>
        <trkpt lat="28.229311" lon="105.663086"><ele>695.2863</ele><time>2026-07-24T22:18:35.000Z</time></trkpt>
        <trkpt lat="28.230392" lon="105.662039"><ele>691.39044</ele><time>2026-07-24T22:20:41.000Z</time></trkpt>
        <trkpt lat="28.231468" lon="105.660125"><ele>694.6154</ele><time>2026-07-24T22:23:26.000Z</time></trkpt>
        <trkpt lat="28.233628" lon="105.65846"><ele>683.4575</ele><time>2026-07-24T22:26:51.000Z</time></trkpt>
        <trkpt lat="28.234836" lon="105.657179"><ele>703.6063</ele><time>2026-07-24T22:29:05.000Z</time></trkpt>
        <trkpt lat="28.235919" lon="105.656996"><ele>718.4939</ele><time>2026-07-24T22:30:31.000Z</time></trkpt>
        <trkpt lat="28.238142" lon="105.657513"><ele>711.0964</ele><time>2026-07-24T22:33:41.000Z</time></trkpt>
        <trkpt lat="28.238973" lon="105.656878"><ele>683.3405</ele><time>2026-07-24T22:34:50.000Z</time></trkpt>
        <trkpt lat="28.239515" lon="105.654563"><ele>672.8366</ele><time>2026-07-24T22:37:42.000Z</time></trkpt>
        <trkpt lat="28.239945" lon="105.653818"><ele>674.08655</ele><time>2026-07-24T22:38:48.000Z</time></trkpt>
        <trkpt lat="28.239829" lon="105.653861"><ele>664.84955</ele><time>2026-07-24T22:39:02.000Z</time></trkpt>
        <trkpt lat="28.240195" lon="105.654235"><ele>661.8695</ele><time>2026-07-24T22:39:48.000Z</time></trkpt>
        <trkpt lat="28.240621" lon="105.653739"><ele>669.1968</ele><time>2026-07-24T22:55:15.000Z</time></trkpt>
        <trkpt lat="28.24067" lon="105.653831"><ele>673.0379</ele><time>2026-07-24T22:55:35.000Z</time></trkpt>
        <trkpt lat="28.240602" lon="105.653721"><ele>677.23157</ele><time>2026-07-24T22:55:53.000Z</time></trkpt>
        <trkpt lat="28.24044" lon="105.654065"><ele>665.43964</ele><time>2026-07-24T23:04:43.000Z</time></trkpt>
        <trkpt lat="28.240136" lon="105.654209"><ele>663.6842</ele><time>2026-07-24T23:05:15.000Z</time></trkpt>
        <trkpt lat="28.239818" lon="105.653783"><ele>657.72034</ele><time>2026-07-24T23:06:01.000Z</time></trkpt>
        <trkpt lat="28.2409" lon="105.652578"><ele>662.9776</ele><time>2026-07-24T23:08:09.000Z</time></trkpt>
        <trkpt lat="28.24123" lon="105.651692"><ele>656.18225</ele><time>2026-07-24T23:09:13.000Z</time></trkpt>
        <trkpt lat="28.24164" lon="105.648609"><ele>669.9287</ele><time>2026-07-24T23:12:53.000Z</time></trkpt>
        <trkpt lat="28.241991" lon="105.647838"><ele>671.0091</ele><time>2026-07-24T23:13:57.000Z</time></trkpt>
        <trkpt lat="28.242547" lon="105.647312"><ele>646.47546</ele><time>2026-07-24T23:15:01.000Z</time></trkpt>
        <trkpt lat="28.2428" lon="105.646797"><ele>640.2593</ele><time>2026-07-24T23:15:41.000Z</time></trkpt>
        <trkpt lat="28.242853" lon="105.646111"><ele>643.65607</ele><time>2026-07-24T23:16:29.000Z</time></trkpt>
        <trkpt lat="28.242668" lon="105.645274"><ele>644.88293</ele><time>2026-07-24T23:17:35.000Z</time></trkpt>
        <trkpt lat="28.241751" lon="105.64417"><ele>651.6643</ele><time>2026-07-24T23:19:32.000Z</time></trkpt>
        <trkpt lat="28.24135" lon="105.643999"><ele>631.15515</ele><time>2026-07-24T23:19:55.000Z</time></trkpt>
        <trkpt lat="28.241062" lon="105.643531"><ele>622.3647</ele><time>2026-07-24T23:20:32.000Z</time></trkpt>
        <trkpt lat="28.241222" lon="105.6427"><ele>624.92053</ele><time>2026-07-24T23:21:32.000Z</time></trkpt>
        <trkpt lat="28.241763" lon="105.642106"><ele>644.8629</ele><time>2026-07-24T23:22:34.000Z</time></trkpt>
        <trkpt lat="28.242168" lon="105.64187"><ele>644.01306</ele><time>2026-07-24T23:23:12.000Z</time></trkpt>
        <trkpt lat="28.243087" lon="105.641747"><ele>630.69775</ele><time>2026-07-24T23:24:30.000Z</time></trkpt>
        <trkpt lat="28.244133" lon="105.641882"><ele>632.633</ele><time>2026-07-24T23:26:36.000Z</time></trkpt>
        <trkpt lat="28.245089" lon="105.642294"><ele>649.04407</ele><time>2026-07-24T23:28:12.000Z</time></trkpt>
        <trkpt lat="28.245992" lon="105.642951"><ele>639.5178</ele><time>2026-07-24T23:29:46.000Z</time></trkpt>
        <trkpt lat="28.246694" lon="105.643152"><ele>630.2682</ele><time>2026-07-24T23:31:00.000Z</time></trkpt>
        <trkpt lat="28.247295" lon="105.643594"><ele>638.5361</ele><time>2026-07-24T23:32:06.000Z</time></trkpt>
        <trkpt lat="28.247852" lon="105.644317"><ele>639.02386</ele><time>2026-07-24T23:33:28.000Z</time></trkpt>
        <trkpt lat="28.248219" lon="105.645163"><ele>631.32153</ele><time>2026-07-24T23:34:38.000Z</time></trkpt>
        <trkpt lat="28.248636" lon="105.645606"><ele>625.8665</ele><time>2026-07-24T23:35:26.000Z</time></trkpt>
        <trkpt lat="28.248958" lon="105.645723"><ele>624.1289</ele><time>2026-07-24T23:35:54.000Z</time></trkpt>
        <trkpt lat="28.249316" lon="105.645559"><ele>616.83704</ele><time>2026-07-24T23:36:24.000Z</time></trkpt>
        <trkpt lat="28.249509" lon="105.645305"><ele>609.703</ele><time>2026-07-24T23:36:50.000Z</time></trkpt>
        <trkpt lat="28.249532" lon="105.644825"><ele>609.4316</ele><time>2026-07-24T23:38:39.000Z</time></trkpt>
        <trkpt lat="28.247926" lon="105.639863"><ele>596.9321</ele><time>2026-07-24T23:44:49.000Z</time></trkpt>
        <trkpt lat="28.248026" lon="105.638469"><ele>610.3468</ele><time>2026-07-24T23:46:23.000Z</time></trkpt>
        <trkpt lat="28.248484" lon="105.637573"><ele>608.5027</ele><time>2026-07-24T23:47:33.000Z</time></trkpt>
        <trkpt lat="28.249686" lon="105.636856"><ele>636.1119</ele><time>2026-07-24T23:49:21.000Z</time></trkpt>
        <trkpt lat="28.252342" lon="105.637506"><ele>595.89996</ele><time>2026-07-24T23:52:43.000Z</time></trkpt>
        <trkpt lat="28.253989" lon="105.637128"><ele>597.5366</ele><time>2026-07-24T23:54:39.000Z</time></trkpt>
        <trkpt lat="28.254494" lon="105.636786"><ele>595.5959</ele><time>2026-07-24T23:55:19.000Z</time></trkpt>
        <trkpt lat="28.255425" lon="105.635135"><ele>585.5646</ele><time>2026-07-24T23:57:21.000Z</time></trkpt>
        <trkpt lat="28.257043" lon="105.633562"><ele>590.28394</ele><time>2026-07-24T23:59:51.000Z</time></trkpt>
        <trkpt lat="28.259305" lon="105.631873"><ele>583.3398</ele><time>2026-07-25T00:02:55.000Z</time></trkpt>
        <trkpt lat="28.260624" lon="105.631257"><ele>585.0766</ele><time>2026-07-25T00:04:37.000Z</time></trkpt>
        <trkpt lat="28.262016" lon="105.631035"><ele>581.27484</ele><time>2026-07-25T00:06:15.000Z</time></trkpt>
        <trkpt lat="28.26508" lon="105.63186"><ele>566.91833</ele><time>2026-07-25T00:10:07.000Z</time></trkpt>
        <trkpt lat="28.265283" lon="105.631779"><ele>569.1784</ele><time>2026-07-25T00:10:25.000Z</time></trkpt>
        <trkpt lat="28.265485" lon="105.631344"><ele>571.2299</ele><time>2026-07-25T00:11:47.000Z</time></trkpt>
        <trkpt lat="28.265523" lon="105.631754"><ele>570.7056</ele><time>2026-07-25T00:12:43.000Z</time></trkpt>
        <trkpt lat="28.265534" lon="105.631453"><ele>567.23065</ele><time>2026-07-25T00:13:07.000Z</time></trkpt>
        <trkpt lat="28.265349" lon="105.631411"><ele>574.2018</ele><time>2026-07-25T00:14:23.000Z</time></trkpt>
        <trkpt lat="28.265441" lon="105.631609"><ele>569.05786</ele><time>2026-07-25T00:19:20.000Z</time></trkpt>
        <trkpt lat="28.265373" lon="105.631438"><ele>567.76526</ele><time>2026-07-25T00:21:15.000Z</time></trkpt>
        <trkpt lat="28.265543" lon="105.631537"><ele>567.0331</ele><time>2026-07-25T00:22:03.000Z</time></trkpt>
        <trkpt lat="28.265474" lon="105.631901"><ele>571.9086</ele><time>2026-07-25T00:23:36.000Z</time></trkpt>
        <trkpt lat="28.265506" lon="105.631438"><ele>563.9267</ele><time>2026-07-25T00:44:32.000Z</time></trkpt>
        <trkpt lat="28.265279" lon="105.631767"><ele>564.0189</ele><time>2026-07-25T00:51:14.000Z</time></trkpt>
        <trkpt lat="28.265255" lon="105.631396"><ele>562.4354</ele><time>2026-07-25T00:51:44.000Z</time></trkpt>
        <trkpt lat="28.264869" lon="105.630945"><ele>571.2346</ele><time>2026-07-25T00:52:34.000Z</time></trkpt>
        <trkpt lat="28.263653" lon="105.630114"><ele>571.26447</ele><time>2026-07-25T00:54:56.000Z</time></trkpt>
        <trkpt lat="28.263032" lon="105.628955"><ele>562.88666</ele><time>2026-07-25T00:56:48.000Z</time></trkpt>
        <trkpt lat="28.263155" lon="105.628317"><ele>557.71124</ele><time>2026-07-25T00:57:40.000Z</time></trkpt>
        <trkpt lat="28.263534" lon="105.627915"><ele>555.51483</ele><time>2026-07-25T00:58:34.000Z</time></trkpt>
        <trkpt lat="28.265818" lon="105.62666"><ele>567.8615</ele><time>2026-07-25T01:02:06.000Z</time></trkpt>
        <trkpt lat="28.266533" lon="105.62578"><ele>556.39197</ele><time>2026-07-25T01:03:32.000Z</time></trkpt>
        <trkpt lat="28.266615" lon="105.62496"><ele>560.29785</ele><time>2026-07-25T01:04:26.000Z</time></trkpt>
        <trkpt lat="28.266065" lon="105.624133"><ele>552.6565</ele><time>2026-07-25T01:05:36.000Z</time></trkpt>
        <trkpt lat="28.26583" lon="105.623221"><ele>541.7314</ele><time>2026-07-25T01:06:38.000Z</time></trkpt>
        <trkpt lat="28.265846" lon="105.622895"><ele>544.3079</ele><time>2026-07-25T01:07:00.000Z</time></trkpt>
        <trkpt lat="28.266342" lon="105.622179"><ele>547.2413</ele><time>2026-07-25T01:08:04.000Z</time></trkpt>
        <trkpt lat="28.267229" lon="105.622497"><ele>551.4753</ele><time>2026-07-25T01:09:08.000Z</time></trkpt>
        <trkpt lat="28.268388" lon="105.624442"><ele>546.8174</ele><time>2026-07-25T01:11:46.000Z</time></trkpt>
        <trkpt lat="28.269145" lon="105.624885"><ele>540.12427</ele><time>2026-07-25T01:13:14.000Z</time></trkpt>
        <trkpt lat="28.270258" lon="105.624474"><ele>552.3983</ele><time>2026-07-25T01:14:40.000Z</time></trkpt>
        <trkpt lat="28.270761" lon="105.624448"><ele>552.9779</ele><time>2026-07-25T01:15:20.000Z</time></trkpt>
        <trkpt lat="28.272181" lon="105.623721"><ele>543.85834</ele><time>2026-07-25T01:17:16.000Z</time></trkpt>
        <trkpt lat="28.273277" lon="105.622634"><ele>527.40607</ele><time>2026-07-25T01:18:12.000Z</time></trkpt>
        <trkpt lat="28.27333" lon="105.622058"><ele>518.0849</ele><time>2026-07-25T01:18:40.000Z</time></trkpt>
        <trkpt lat="28.273697" lon="105.622446"><ele>512.4862</ele><time>2026-07-25T01:19:08.000Z</time></trkpt>
        <trkpt lat="28.273917" lon="105.622453"><ele>513.5794</ele><time>2026-07-25T01:19:20.000Z</time></trkpt>
        <trkpt lat="28.27473" lon="105.62165"><ele>526.80963</ele><time>2026-07-25T01:20:08.000Z</time></trkpt>
        <trkpt lat="28.275304" lon="105.621493"><ele>529.5281</ele><time>2026-07-25T01:20:36.000Z</time></trkpt>
        <trkpt lat="28.275571" lon="105.621729"><ele>524.8114</ele><time>2026-07-25T01:20:58.000Z</time></trkpt>
        <trkpt lat="28.275789" lon="105.622288"><ele>514.8462</ele><time>2026-07-25T01:21:32.000Z</time></trkpt>
        <trkpt lat="28.275804" lon="105.623142"><ele>522.8924</ele><time>2026-07-25T01:22:32.000Z</time></trkpt>
        <trkpt lat="28.276566" lon="105.625745"><ele>521.50433</ele><time>2026-07-25T01:25:20.000Z</time></trkpt>
        <trkpt lat="28.277196" lon="105.626804"><ele>512.2747</ele><time>2026-07-25T01:26:36.000Z</time></trkpt>
        <trkpt lat="28.277428" lon="105.626837"><ele>513.59076</ele><time>2026-07-25T01:26:52.000Z</time></trkpt>
        <trkpt lat="28.278081" lon="105.626487"><ele>517.4501</ele><time>2026-07-25T01:27:50.000Z</time></trkpt>
        <trkpt lat="28.279831" lon="105.626426"><ele>504.95</ele><time>2026-07-25T01:30:04.000Z</time></trkpt>
        <trkpt lat="28.281101" lon="105.626184"><ele>491.81436</ele><time>2026-07-25T01:31:46.000Z</time></trkpt>
      </trkseg>
  </trk>
</gpx>